Aviation Digital Data Service (ADDS)

Output produced by METARs form (1041 UTC 19 February 2019)
found at http://www.aviationweather.gov/metar/data/
 
Forecast for: WIPP (PALEMBANG/SULTAN, ID)
Text: TAF WIPP 190500Z 1906/2006 34006KT 9999 BKN010
Forecast period: 0600 UTC 19 February 2019 to 0600 UTC 20 February 2019
Forecast type: FROM: standard forecast or significant change
Winds: from the NNW (340 degrees) at 7 MPH (6 knots; 3.1 m/s)
Visibility: 6 or more miles 10+ km)
Ceiling: 1000 feet AGL
Clouds: broken clouds at 1000 feet AGL
Weather: no significant weather forecast for this period
Text: TEMPO 1910/1914 3000 RA BKN010 FEW012CB
Forecast period: 1000 to 1400 UTC 19 February 2019
Forecast type: TEMPORARY: The following changes expected for less than half the time period
Visibility: 1.86 miles (2.99 km)
Ceiling: 1000 feet AGL
Clouds: broken clouds at 1000 feet AGL
few clouds at 1200 feet AGL
Weather: RA  (moderate rain)
Text: TEMPO 1920/1924 3000 BR FEW012
Forecast period: 2000 UTC 19 February 2019 to 0000 UTC 20 February 2019
Forecast type: TEMPORARY: The following changes expected for less than half the time period
Visibility: 1.86 miles (2.99 km)
Ceiling: at least 12,000 feet AGL
Clouds: few clouds at 1200 feet AGL
Weather: BR  (mist)